createdAt,value
2022-08-17T00:00:43.678Z,47.8850
2022-08-17T00:01:51.357Z,47.9200
2022-08-17T00:02:41.021Z,47.9630
2022-08-17T00:03:38.083Z,48.0320
2022-08-17T00:04:40.378Z,47.8950
2022-08-17T00:05:42.595Z,47.9790
2022-08-17T00:06:44.843Z,47.8740
2022-08-17T00:07:47.083Z,47.8480
2022-08-17T00:08:49.362Z,47.8110
2022-08-17T00:09:51.613Z,47.7730
2022-08-17T00:10:53.815Z,47.7160
2022-08-17T00:12:41.577Z,47.7100
2022-08-17T00:12:58.400Z,47.7630
2022-08-17T00:14:00.724Z,47.8230
2022-08-17T00:15:03.016Z,47.9630
2022-08-17T00:16:03.176Z,47.9570
2022-08-17T00:17:05.494Z,47.8800
2022-08-17T00:19:06.072Z,47.8740
2022-08-17T00:19:10.085Z,48.0140
2022-08-17T00:20:12.422Z,48.0240
2022-08-17T00:21:14.666Z,48.0040
2022-08-17T00:22:34.399Z,48.0830
2022-08-17T00:23:17.142Z,48.1280
2022-08-17T00:24:19.464Z,48.2600
2022-08-17T00:25:21.834Z,48.2520
2022-08-17T00:26:43.701Z,48.1640
2022-08-17T00:27:26.422Z,48.0540
2022-08-17T00:28:28.724Z,47.9790
2022-08-17T00:29:28.888Z,48.0520
2022-08-17T00:30:31.159Z,48.0540
2022-08-17T00:31:33.404Z,48.1420
2022-08-17T00:33:15.855Z,48.1170
2022-08-17T00:33:37.951Z,48.1700
2022-08-17T00:34:40.260Z,48.2030
2022-08-17T00:35:42.550Z,48.1210
2022-08-17T00:36:42.642Z,48.0770
2022-08-17T00:37:44.940Z,48.0650
2022-08-17T00:38:47.190Z,47.9980
2022-08-17T00:39:49.544Z,47.9610
2022-08-17T00:40:51.951Z,47.9950
2022-08-17T00:41:56.227Z,48.0260
2022-08-17T00:42:56.372Z,48.0540
2022-08-17T00:43:58.662Z,48.0500
2022-08-17T00:44:58.824Z,48.0160
2022-08-17T00:46:01.170Z,48.0500
2022-08-17T00:47:01.293Z,48.0770
2022-08-17T00:48:03.589Z,48.0930
2022-08-17T00:49:05.844Z,48.1820
2022-08-17T00:50:08.142Z,48.2610
2022-08-17T00:51:10.495Z,48.1910
2022-08-17T00:52:12.763Z,48.2330
2022-08-17T00:53:14.978Z,48.2450
2022-08-17T00:54:15.141Z,48.2090
2022-08-17T00:55:17.346Z,48.1700
2022-08-17T00:56:19.684Z,48.1070
2022-08-17T00:57:21.965Z,48.0610
2022-08-17T00:58:28.781Z,48.0540
2022-08-17T00:59:26.419Z,48.1400
2022-08-17T01:00:28.632Z,48.1340
2022-08-17T01:01:31.072Z,48.1520
2022-08-17T01:02:34.310Z,48.1460
2022-08-17T01:03:33.437Z,48.2550
2022-08-17T01:04:35.729Z,48.2370
2022-08-17T01:05:38.059Z,48.2550
2022-08-17T01:06:40.363Z,48.3060
2022-08-17T01:07:42.596Z,48.3200
2022-08-17T01:08:44.911Z,48.3200
2022-08-17T01:09:45.074Z,48.2840
2022-08-17T01:10:57.386Z,48.2630
2022-08-17T01:11:49.746Z,48.3140
2022-08-17T01:12:52.010Z,48.3240
2022-08-17T01:13:54.316Z,48.3240
2022-08-17T01:14:56.616Z,48.2770
2022-08-17T01:15:58.865Z,48.2630
2022-08-17T01:16:59.026Z,48.1920
2022-08-17T01:18:01.244Z,48.1520
2022-08-17T01:19:03.502Z,48.1190
2022-08-17T01:20:05.819Z,48.1570
2022-08-17T01:21:08.031Z,48.2080
2022-08-17T01:22:10.336Z,48.2980
2022-08-17T01:23:12.582Z,48.3140
2022-08-17T01:24:12.712Z,48.4870
2022-08-17T01:25:14.973Z,48.5230
2022-08-17T01:26:17.210Z,48.4930
2022-08-17T01:27:20.585Z,48.5050
2022-08-17T01:28:53.123Z,48.7190
2022-08-17T01:29:23.891Z,48.9140
2022-08-17T01:30:56.785Z,48.9800
2022-08-17T01:32:20.093Z,48.9610
2022-08-17T01:33:22.238Z,48.7450
2022-08-17T01:34:24.459Z,48.6010
2022-08-17T01:35:26.668Z,48.5160
2022-08-17T01:36:28.930Z,48.4690
2022-08-17T01:37:31.214Z,48.4750
2022-08-17T01:38:33.449Z,48.4970
2022-08-17T01:39:35.762Z,48.4750
2022-08-17T01:40:37.917Z,48.4650
2022-08-17T01:41:40.157Z,48.4020
2022-08-17T01:42:42.447Z,48.3550
2022-08-17T01:43:44.657Z,48.4120
2022-08-17T01:44:44.796Z,48.4650
2022-08-17T01:45:47.084Z,48.4020
2022-08-17T01:46:49.367Z,48.4400
2022-08-17T01:47:51.673Z,48.4280
2022-08-17T01:48:53.914Z,48.4680
2022-08-17T01:49:56.183Z,48.4620
2022-08-17T01:50:58.470Z,48.4740
2022-08-17T01:51:58.610Z,48.4480
2022-08-17T01:53:00.957Z,48.4640
2022-08-17T01:54:03.207Z,48.4700
2022-08-17T01:55:05.510Z,48.5370
2022-08-17T01:56:07.820Z,48.7710
2022-08-17T01:57:10.122Z,49.0080
2022-08-17T01:58:12.463Z,49.2180
2022-08-17T01:59:12.603Z,49.2940
2022-08-17T02:00:14.912Z,49.2320
2022-08-17T02:01:17.249Z,49.2570
2022-08-17T02:02:31.021Z,49.4120
2022-08-17T02:03:19.711Z,49.2670
2022-08-17T02:04:21.978Z,49.0840
2022-08-17T02:05:24.270Z,48.9550
2022-08-17T02:06:27.802Z,48.8220
2022-08-17T02:07:28.833Z,48.7170
2022-08-17T02:08:38.713Z,48.6500
2022-08-17T02:09:34.397Z,48.8410
2022-08-17T02:10:36.630Z,48.9450
2022-08-17T02:11:37.835Z,48.8960
2022-08-17T02:12:40.085Z,48.8060
2022-08-17T02:13:42.408Z,48.8060
2022-08-17T02:14:44.708Z,48.6430
2022-08-17T02:15:46.999Z,48.6500
2022-08-17T02:16:47.160Z,48.5840
2022-08-17T02:17:49.471Z,48.5500
2022-08-17T02:18:51.804Z,48.5620
2022-08-17T02:19:54.063Z,48.5620
2022-08-17T02:20:56.355Z,48.5620
2022-08-17T02:21:58.661Z,48.5580
2022-08-17T02:23:00.915Z,48.6060
2022-08-17T02:24:03.219Z,48.5660
2022-08-17T02:25:03.236Z,48.5740
2022-08-17T02:26:05.489Z,48.5680
2022-08-17T02:27:07.737Z,48.5430
2022-08-17T02:28:09.991Z,48.5210
2022-08-17T02:29:12.257Z,48.5560
2022-08-17T02:31:01.582Z,48.4990
2022-08-17T02:31:16.700Z,48.4800
2022-08-17T02:32:25.473Z,48.4760
2022-08-17T02:33:21.283Z,48.5090
2022-08-17T02:34:21.465Z,48.5050
2022-08-17T02:35:23.668Z,48.4470
2022-08-17T02:36:27.541Z,48.4580
2022-08-17T02:37:28.274Z,48.5200
2022-08-17T02:38:30.574Z,48.5320
2022-08-17T02:39:32.958Z,48.5050
2022-08-17T02:40:36.343Z,48.5100
2022-08-17T02:41:37.394Z,48.4640
2022-08-17T02:42:37.536Z,48.4230
2022-08-17T02:43:39.850Z,48.3560
2022-08-17T02:44:42.169Z,48.3210
2022-08-17T02:45:44.469Z,48.3350
2022-08-17T02:46:46.769Z,48.3840
2022-08-17T02:47:49.109Z,48.4050
2022-08-17T02:48:51.365Z,48.3900
2022-08-17T02:49:55.611Z,48.4190
2022-08-17T02:50:55.863Z,48.4750
2022-08-17T02:51:58.134Z,48.5410
2022-08-17T02:53:02.492Z,48.5790
2022-08-17T02:54:05.316Z,48.7180
2022-08-17T02:55:04.995Z,48.8850
2022-08-17T02:56:07.221Z,49.1870
2022-08-17T02:57:07.346Z,49.1830
2022-08-17T02:58:09.648Z,48.9910
2022-08-17T02:59:11.939Z,48.8400
2022-08-17T03:00:14.256Z,49.2330
2022-08-17T03:01:16.627Z,49.1700
2022-08-17T03:02:18.838Z,49.0990
2022-08-17T03:03:21.127Z,48.9480
2022-08-17T03:04:21.234Z,48.7490
2022-08-17T03:05:23.535Z,48.7300
2022-08-17T03:06:25.805Z,48.6480
2022-08-17T03:07:28.101Z,48.7010
2022-08-17T03:08:30.402Z,48.7280
2022-08-17T03:09:32.747Z,48.6590
2022-08-17T03:10:32.982Z,48.6380
2022-08-17T03:11:35.312Z,48.6260
2022-08-17T03:12:37.638Z,48.5470
2022-08-17T03:13:39.925Z,48.5890
2022-08-17T03:14:42.236Z,48.6240
2022-08-17T03:15:44.615Z,48.6480
2022-08-17T03:16:44.772Z,48.7770
2022-08-17T03:17:47.099Z,48.8460
2022-08-17T03:18:49.392Z,48.8060
2022-08-17T03:19:51.698Z,48.8380
2022-08-17T03:20:54.205Z,48.8100
2022-08-17T03:21:55.299Z,48.8240
2022-08-17T03:23:02.750Z,48.8220
2022-08-17T03:23:58.570Z,48.9150
2022-08-17T03:25:00.807Z,48.8970
2022-08-17T03:26:03.123Z,48.8520
2022-08-17T03:27:05.343Z,48.8710
2022-08-17T03:28:07.624Z,48.8280
2022-08-17T03:29:09.915Z,48.9110
2022-08-17T03:30:12.202Z,48.9660
2022-08-17T03:31:12.396Z,49.0070
2022-08-17T03:32:14.671Z,49.0700
2022-08-17T03:33:17.087Z,49.0830
2022-08-17T03:34:19.256Z,49.0700
2022-08-17T03:35:58.086Z,49.1200
2022-08-17T03:36:59.201Z,49.0930
2022-08-17T03:38:01.298Z,49.0730
2022-08-17T03:39:02.669Z,49.0660
2022-08-17T03:40:05.171Z,49.0070
2022-08-17T03:41:07.218Z,48.9680
2022-08-17T03:43:26.889Z,48.8970
2022-08-17T03:44:29.050Z,48.7760
2022-08-17T03:45:31.304Z,48.7460
2022-08-17T03:46:35.184Z,48.6710
2022-08-17T03:47:33.705Z,48.7460
2022-08-17T03:48:36.012Z,48.7340
2022-08-17T03:49:38.273Z,48.7020
2022-08-17T03:50:40.557Z,48.6770
2022-08-17T03:51:42.847Z,48.7180
2022-08-17T03:52:45.135Z,48.7810
2022-08-17T03:53:45.306Z,48.8100
2022-08-17T03:54:47.526Z,48.7570
2022-08-17T03:55:49.792Z,48.7470
2022-08-17T03:56:52.043Z,48.7470
2022-08-17T03:57:54.228Z,48.7190
2022-08-17T03:58:56.483Z,48.7110
2022-08-17T03:59:58.669Z,48.7110
2022-08-17T04:01:00.939Z,48.7110
2022-08-17T04:02:03.108Z,48.7450
2022-08-17T04:03:05.325Z,48.7410
2022-08-17T04:04:05.446Z,48.7740
2022-08-17T04:05:07.698Z,48.7700
2022-08-17T04:06:09.977Z,48.7860
2022-08-17T04:07:12.222Z,48.7580
2022-08-17T04:08:14.478Z,48.7290
2022-08-17T04:09:16.741Z,48.7250
2022-08-17T04:10:18.970Z,48.7450
2022-08-17T04:11:21.242Z,48.7450
2022-08-17T04:12:23.522Z,48.7540
2022-08-17T04:13:24.762Z,48.7700
2022-08-17T04:14:25.866Z,48.8430
2022-08-17T04:15:28.100Z,48.8700
2022-08-17T04:16:30.373Z,48.8290
2022-08-17T04:17:32.663Z,48.8170
2022-08-17T04:18:34.876Z,48.7640
2022-08-17T04:19:37.163Z,48.7740
2022-08-17T04:20:39.311Z,48.7360
2022-08-17T04:21:41.501Z,48.7600
2022-08-17T04:22:43.697Z,48.8270
2022-08-17T04:23:45.917Z,48.8800
2022-08-17T04:24:45.966Z,48.8930
2022-08-17T04:25:48.141Z,48.8640
2022-08-17T04:26:54.119Z,48.8580
2022-08-17T04:27:52.567Z,48.8850
2022-08-17T04:28:54.770Z,48.8850
2022-08-17T04:29:57.025Z,48.8850
2022-08-17T04:30:59.182Z,48.8460
2022-08-17T04:32:01.409Z,48.9090
2022-08-17T04:33:10.683Z,48.8870
2022-08-17T04:34:05.863Z,48.8810
2022-08-17T04:35:08.079Z,48.8440
2022-08-17T04:36:10.258Z,48.8560
2022-08-17T04:37:12.547Z,48.8990
2022-08-17T04:38:14.808Z,48.8720
2022-08-17T04:39:14.977Z,48.8280
2022-08-17T04:40:17.377Z,48.6950
2022-08-17T04:41:19.534Z,48.7280
2022-08-17T04:42:21.829Z,48.7240
2022-08-17T04:43:24.108Z,48.7360
2022-08-17T04:44:36.788Z,48.7360
2022-08-17T04:45:26.487Z,48.7750
2022-08-17T04:46:28.748Z,48.8610
2022-08-17T04:47:31.044Z,48.7690
2022-08-17T04:48:36.848Z,48.7850
2022-08-17T04:49:33.459Z,48.7770
2022-08-17T04:50:35.773Z,48.7770
2022-08-17T04:51:35.912Z,48.7940
2022-08-17T04:52:43.223Z,48.7810
2022-08-17T04:53:38.332Z,48.9370
2022-08-17T04:54:40.568Z,48.9200
2022-08-17T04:55:42.834Z,48.9650
2022-08-17T04:56:42.956Z,48.9450
2022-08-17T04:57:45.347Z,49.0490
2022-08-17T04:58:45.368Z,49.0820
2022-08-17T04:59:47.693Z,49.0350
2022-08-17T05:00:50.085Z,48.9730
2022-08-17T05:01:52.278Z,48.8960
2022-08-17T05:02:52.693Z,48.8790
2022-08-17T05:03:54.739Z,48.8280
2022-08-17T05:04:56.998Z,48.8120
2022-08-17T05:05:59.328Z,48.7810
2022-08-17T05:07:01.584Z,48.7750
2022-08-17T05:08:03.869Z,48.7810
2022-08-17T05:09:06.175Z,48.8220
2022-08-17T05:10:06.377Z,48.7530
2022-08-17T05:11:08.702Z,48.7710
2022-08-17T05:12:10.975Z,48.8280
2022-08-17T05:13:13.228Z,48.8980
2022-08-17T05:14:15.493Z,48.8820
2022-08-17T05:15:17.769Z,48.9430
2022-08-17T05:16:20.537Z,49.0060
2022-08-17T05:17:20.167Z,48.9900
2022-08-17T05:18:22.424Z,48.9960
2022-08-17T05:19:24.660Z,49.0180
2022-08-17T05:20:26.875Z,49.0240
2022-08-17T05:21:29.141Z,49.0290
2022-08-17T05:22:31.316Z,49.0350
2022-08-17T05:23:41.902Z,49.0200
2022-08-17T05:24:38.987Z,49.0430
2022-08-17T05:25:37.949Z,49.1180
2022-08-17T05:26:40.199Z,49.0940
2022-08-17T05:27:42.437Z,49.1060
2022-08-17T05:28:44.688Z,49.0880
2022-08-17T05:29:44.787Z,49.0430
2022-08-17T05:30:49.260Z,49.0370
2022-08-17T05:31:49.347Z,49.0630
2022-08-17T05:32:51.908Z,49.0020
2022-08-17T05:33:53.842Z,48.9900
2022-08-17T05:34:56.092Z,48.9650
2022-08-17T05:36:58.555Z,49.0430
2022-08-17T05:38:00.709Z,49.0430
2022-08-17T05:39:02.970Z,49.0590
2022-08-17T05:40:05.296Z,48.9830
2022-08-17T05:41:07.433Z,49.0490
2022-08-17T05:42:07.556Z,49.0180
2022-08-17T05:43:09.782Z,49.0240
2022-08-17T05:44:12.028Z,49.0140
2022-08-17T05:45:14.264Z,49.0200
2022-08-17T05:46:16.533Z,49.0080
2022-08-17T05:47:18.848Z,49.0350
2022-08-17T05:48:21.090Z,49.0080
2022-08-17T05:49:23.331Z,49.0310
2022-08-17T05:50:27.201Z,49.0550
2022-08-17T05:51:27.801Z,49.0430
2022-08-17T05:52:27.900Z,49.0180
2022-08-17T05:53:30.030Z,49.0000
2022-08-17T05:54:32.262Z,49.0360
2022-08-17T05:55:34.499Z,48.9730
2022-08-17T05:56:36.731Z,48.9510
2022-08-17T05:57:42.386Z,48.9610
2022-08-17T05:58:41.140Z,48.9860
2022-08-17T05:59:43.347Z,49.0020
2022-08-17T06:00:45.722Z,48.9830
2022-08-17T06:01:47.833Z,48.9510
2022-08-17T06:02:50.566Z,48.9260
2022-08-17T06:03:52.272Z,48.9360
2022-08-17T06:04:54.451Z,48.9510
2022-08-17T06:05:56.655Z,48.9300
2022-08-17T06:06:56.750Z,48.9320
2022-08-17T06:07:59.012Z,48.9140
2022-08-17T06:09:01.235Z,48.9320
2022-08-17T06:10:03.571Z,48.8810
2022-08-17T06:11:05.707Z,48.9240
2022-08-17T06:12:07.947Z,48.9140
2022-08-17T06:13:10.193Z,48.8980
2022-08-17T06:14:12.421Z,48.9020
2022-08-17T06:15:14.655Z,48.8950
2022-08-17T06:16:28.221Z,48.9020
2022-08-17T06:17:16.992Z,48.8980
2022-08-17T06:18:19.374Z,48.9260
2022-08-17T06:19:21.517Z,48.9260
2022-08-17T06:20:23.749Z,48.8200
2022-08-17T06:21:30.476Z,48.8570
2022-08-17T06:22:28.275Z,48.8920
2022-08-17T06:23:30.617Z,48.8690
2022-08-17T06:24:32.750Z,48.8690
2022-08-17T06:25:34.980Z,48.8060
2022-08-17T06:26:41.076Z,48.8380
2022-08-17T06:27:37.293Z,48.9550
2022-08-17T06:28:39.637Z,48.9140
2022-08-17T06:29:41.874Z,48.8260
2022-08-17T06:31:00.338Z,48.8320
2022-08-17T06:31:46.338Z,48.8610
2022-08-17T06:32:48.723Z,48.8890
2022-08-17T06:33:50.783Z,48.9240
2022-08-17T06:34:52.965Z,48.8220
2022-08-17T06:35:55.186Z,48.8200
2022-08-17T06:36:55.269Z,48.7590
2022-08-17T06:37:57.502Z,48.8000
2022-08-17T06:38:59.795Z,48.7470
2022-08-17T06:40:02.074Z,48.7980
2022-08-17T06:41:04.231Z,48.7940
2022-08-17T06:42:06.473Z,48.7630
2022-08-17T06:43:09.170Z,48.7500
2022-08-17T06:44:10.979Z,48.7500
2022-08-17T06:45:13.177Z,48.7340
2022-08-17T06:46:13.281Z,48.7360
2022-08-17T06:47:15.478Z,48.7930
2022-08-17T06:48:17.738Z,48.7870
2022-08-17T06:49:20.001Z,48.7690
2022-08-17T06:50:22.228Z,48.7770
2022-08-17T06:51:24.518Z,48.7470
2022-08-17T06:52:45.315Z,48.7850
2022-08-17T06:53:28.981Z,48.7750
2022-08-17T06:54:31.230Z,48.7810
2022-08-17T06:55:37.877Z,48.8060
2022-08-17T06:56:53.042Z,48.8320
2022-08-17T06:57:35.748Z,48.8160
2022-08-17T06:58:38.874Z,48.8260
2022-08-17T06:59:54.412Z,48.7500
2022-08-17T07:00:42.516Z,48.7630
2022-08-17T07:01:44.667Z,48.7630
2022-08-17T07:02:52.768Z,48.7080
2022-08-17T07:03:49.163Z,48.7180
2022-08-17T07:04:51.447Z,48.7180
2022-08-17T07:05:53.696Z,48.7180
2022-08-17T07:06:55.993Z,48.7220
2022-08-17T07:07:56.145Z,48.7160
2022-08-17T07:08:58.466Z,48.7080
2022-08-17T07:10:00.883Z,48.7220
2022-08-17T07:11:03.056Z,48.7160
2022-08-17T07:12:05.354Z,48.6810
2022-08-17T07:13:07.690Z,48.6710
2022-08-17T07:14:07.857Z,48.6200
2022-08-17T07:15:10.148Z,48.6260
2022-08-17T07:16:12.363Z,48.6140
2022-08-17T07:17:14.614Z,48.5890
2022-08-17T07:18:16.853Z,48.5690
2022-08-17T07:19:19.066Z,48.5920
2022-08-17T07:20:21.364Z,48.5850
2022-08-17T07:21:26.521Z,48.6240
2022-08-17T07:22:23.722Z,48.6180
2022-08-17T07:23:25.963Z,48.5670
2022-08-17T07:24:30.387Z,48.5790
2022-08-17T07:25:30.671Z,48.6380
2022-08-17T07:26:32.684Z,48.5850
2022-08-17T07:27:34.948Z,48.5920
2022-08-17T07:28:37.182Z,48.5830
2022-08-17T07:29:39.418Z,48.5770
2022-08-17T07:30:46.777Z,48.5630
2022-08-17T07:31:43.942Z,48.6260
2022-08-17T07:32:44.049Z,48.6020
2022-08-17T07:33:46.296Z,48.5730
2022-08-17T07:34:48.534Z,48.6180
2022-08-17T07:35:50.819Z,48.5610
2022-08-17T07:36:53.020Z,48.5670
2022-08-17T07:37:55.237Z,48.5550
2022-08-17T07:38:57.479Z,48.5610
2022-08-17T07:40:16.252Z,48.5550
2022-08-17T07:41:02.216Z,48.5830
2022-08-17T07:42:04.188Z,48.5790
2022-08-17T07:43:04.860Z,48.5670
2022-08-17T07:44:08.686Z,48.5950
2022-08-17T07:44:21.580Z,48.5770
2022-08-17T07:45:23.902Z,48.5550
2022-08-17T07:46:26.149Z,48.5450
2022-08-17T07:47:28.439Z,48.5260
2022-08-17T07:48:30.680Z,48.5040
2022-08-17T07:49:30.775Z,48.5000
2022-08-17T07:50:33.085Z,48.5080
2022-08-17T07:51:35.387Z,48.5080
2022-08-17T07:52:50.438Z,48.5350
2022-08-17T07:53:40.009Z,48.5950
2022-08-17T07:54:42.276Z,48.5490
2022-08-17T07:55:44.541Z,48.5160
2022-08-17T07:56:46.907Z,48.5080
2022-08-17T07:57:47.043Z,48.5140
2022-08-17T07:58:49.238Z,48.4940
2022-08-17T07:59:51.498Z,48.5200
2022-08-17T08:00:53.743Z,48.4790
2022-08-17T08:01:57.391Z,48.5080
2022-08-17T08:02:58.329Z,48.4980
2022-08-17T08:04:00.636Z,48.4680
2022-08-17T08:05:01.857Z,48.4980
2022-08-17T08:06:03.103Z,48.4810
2022-08-17T08:07:05.618Z,48.5080
2022-08-17T08:08:07.595Z,48.5000
2022-08-17T08:09:09.869Z,48.4470
2022-08-17T08:10:12.168Z,48.4410
2022-08-17T08:11:14.468Z,48.4410
2022-08-17T08:12:15.920Z,48.4540
2022-08-17T08:13:16.934Z,48.5040
2022-08-17T08:14:19.226Z,48.4920
2022-08-17T08:15:21.451Z,48.4800
2022-08-17T08:16:23.704Z,48.4410
2022-08-17T08:17:25.961Z,48.4290
2022-08-17T08:18:54.690Z,48.4230
2022-08-17T08:19:30.405Z,48.4410
2022-08-17T08:20:50.886Z,48.4290
2022-08-17T08:21:32.773Z,48.4620
2022-08-17T08:22:35.010Z,48.4350
2022-08-17T08:23:37.294Z,48.4170
2022-08-17T08:24:39.581Z,48.4350
2022-08-17T08:25:41.935Z,48.4010
2022-08-17T08:26:44.142Z,48.4350
2022-08-17T08:27:46.565Z,48.4410
2022-08-17T08:28:46.580Z,48.4270
2022-08-17T08:29:48.890Z,48.4070
2022-08-17T08:30:51.210Z,48.4010
2022-08-17T08:31:53.499Z,48.4010
2022-08-17T08:32:57.290Z,48.4010
2022-08-17T08:33:58.087Z,48.4270
2022-08-17T08:35:01.471Z,48.4190
2022-08-17T08:36:00.465Z,48.4270
2022-08-17T08:37:15.911Z,48.3820
2022-08-17T08:38:05.061Z,48.4230
2022-08-17T08:39:07.321Z,48.4010
2022-08-17T08:40:09.749Z,48.3950
2022-08-17T08:41:12.000Z,48.4010
2022-08-17T08:42:14.288Z,48.3880
2022-08-17T08:43:14.505Z,48.4010
2022-08-17T08:44:16.776Z,48.3920
2022-08-17T08:45:19.111Z,48.3850
2022-08-17T08:46:21.396Z,48.3850
2022-08-17T08:47:23.703Z,48.3660
2022-08-17T08:48:55.717Z,48.3420
2022-08-17T08:49:59.135Z,48.3760
2022-08-17T08:50:37.260Z,48.3780
2022-08-17T08:51:28.564Z,48.4410
2022-08-17T08:52:33.000Z,48.3350
2022-08-17T08:53:33.201Z,48.4130
2022-08-17T08:54:35.419Z,48.3640
2022-08-17T08:55:37.696Z,48.3420
2022-08-17T08:56:49.690Z,48.3150
2022-08-17T08:57:42.287Z,48.3820
2022-08-17T08:58:44.716Z,48.3660
2022-08-17T08:59:44.821Z,48.3350
2022-08-17T09:00:47.007Z,48.3640
2022-08-17T09:01:49.313Z,48.3420
2022-08-17T09:02:51.508Z,48.3420
2022-08-17T09:03:53.984Z,48.3290
2022-08-17T09:05:14.045Z,48.3420
2022-08-17T09:05:58.218Z,48.3820
2022-08-17T09:07:00.470Z,48.3600
2022-08-17T09:08:02.709Z,48.3480
2022-08-17T09:09:02.850Z,48.3150
2022-08-17T09:10:05.078Z,48.3290
2022-08-17T09:11:07.351Z,48.3150
2022-08-17T09:12:09.571Z,48.3090
2022-08-17T09:13:11.821Z,48.3250
2022-08-17T09:14:21.669Z,48.3130
2022-08-17T09:15:16.331Z,48.3420
2022-08-17T09:16:18.578Z,48.2340
2022-08-17T09:17:20.828Z,48.2340
2022-08-17T09:19:00.699Z,48.3030
2022-08-17T09:19:23.470Z,48.3030
2022-08-17T09:20:28.154Z,48.2660
2022-08-17T09:21:27.725Z,48.2600
2022-08-17T09:22:29.979Z,48.2340
2022-08-17T09:23:32.223Z,48.1910
2022-08-17T09:24:34.498Z,48.2050
2022-08-17T09:25:36.726Z,48.1750
2022-08-17T09:26:39.004Z,48.1870
2022-08-17T09:27:41.277Z,48.1480
2022-08-17T09:28:43.485Z,48.1580
2022-08-17T09:29:45.741Z,48.1870
2022-08-17T09:30:48.004Z,48.1930
2022-08-17T09:31:50.273Z,48.1990
2022-08-17T09:32:52.535Z,48.2030
2022-08-17T09:33:54.793Z,48.2280
2022-08-17T09:34:57.132Z,48.2030
2022-08-17T09:35:57.211Z,48.2210
2022-08-17T09:36:59.466Z,48.2090
2022-08-17T09:38:01.773Z,48.2030
2022-08-17T09:39:04.103Z,48.2090
2022-08-17T09:40:06.497Z,48.1970
2022-08-17T09:41:08.684Z,48.1460
2022-08-17T09:42:10.973Z,48.1460
2022-08-17T09:43:11.078Z,48.1580
2022-08-17T09:44:22.978Z,48.0950
2022-08-17T09:45:15.678Z,48.1010
2022-08-17T09:46:17.758Z,48.1460
2022-08-17T09:47:19.975Z,48.0950
2022-08-17T09:48:22.200Z,48.1070
2022-08-17T09:49:25.393Z,48.1460
2022-08-17T09:50:55.344Z,48.0830
2022-08-17T09:51:28.898Z,48.1400
2022-08-17T09:52:31.113Z,48.1140
2022-08-17T09:53:33.359Z,48.0930
2022-08-17T09:54:39.007Z,48.0870
2022-08-17T09:55:35.732Z,48.1280
2022-08-17T09:56:42.312Z,48.1010
2022-08-17T09:57:40.227Z,48.1280
2022-08-17T09:58:44.569Z,48.0830
2022-08-17T09:59:44.684Z,48.1110
2022-08-17T10:00:47.055Z,48.0990
2022-08-17T10:01:49.152Z,48.0950
2022-08-17T10:02:51.390Z,48.0790
2022-08-17T10:03:51.457Z,48.0730
2022-08-17T10:04:53.697Z,48.0870
2022-08-17T10:05:56.510Z,48.0670
2022-08-17T10:06:58.179Z,48.0790
2022-08-17T10:08:00.441Z,48.0520
2022-08-17T10:09:02.696Z,48.0650
2022-08-17T10:10:04.955Z,48.0590
2022-08-17T10:11:07.283Z,48.0440
2022-08-17T10:12:09.527Z,48.0770
2022-08-17T10:13:11.834Z,48.0200
2022-08-17T10:14:35.981Z,47.9950
2022-08-17T10:15:14.730Z,48.0790
2022-08-17T10:16:16.587Z,48.0730
2022-08-17T10:17:18.869Z,48.0670
2022-08-17T10:18:21.167Z,48.0650
2022-08-17T10:19:23.477Z,48.0440
2022-08-17T10:20:23.626Z,48.0420
2022-08-17T10:21:25.964Z,48.0300
2022-08-17T10:22:34.710Z,48.0360
2022-08-17T10:23:30.527Z,48.0480
2022-08-17T10:24:32.824Z,48.0730
2022-08-17T10:25:53.535Z,48.0730
2022-08-17T10:26:40.367Z,48.1050
2022-08-17T10:27:37.586Z,48.1360
2022-08-17T10:28:39.896Z,48.1300
2022-08-17T10:29:47.342Z,48.0950
2022-08-17T10:30:44.408Z,48.1300
2022-08-17T10:31:46.688Z,48.0890
2022-08-17T10:32:46.685Z,48.0890
2022-08-17T10:33:46.751Z,48.1120
2022-08-17T10:34:48.978Z,48.0550
2022-08-17T10:35:51.211Z,48.0520
2022-08-17T10:36:53.521Z,48.0380
2022-08-17T10:37:55.741Z,48.0440
2022-08-17T10:38:57.999Z,48.0150
2022-08-17T10:40:00.352Z,47.9960
2022-08-17T10:41:02.538Z,48.0020
2022-08-17T10:42:04.882Z,47.9900
2022-08-17T10:43:04.976Z,47.9840
2022-08-17T10:44:37.959Z,47.9900
2022-08-17T10:45:09.488Z,48.0650
2022-08-17T10:46:30.634Z,48.0150
2022-08-17T10:47:14.174Z,48.0650
2022-08-17T10:48:16.328Z,48.0410
2022-08-17T10:49:18.614Z,47.9960
2022-08-17T10:50:20.878Z,47.9900
2022-08-17T10:51:21.029Z,47.9680
2022-08-17T10:52:25.084Z,47.9680
2022-08-17T10:53:25.624Z,47.9840
2022-08-17T10:54:27.908Z,47.9560
2022-08-17T10:55:30.174Z,47.9620
2022-08-17T10:56:32.517Z,47.9560
2022-08-17T10:57:34.857Z,47.9490
2022-08-17T10:58:34.970Z,47.9170
2022-08-17T10:59:37.267Z,47.9170
2022-08-17T11:00:39.593Z,47.9350
2022-08-17T11:01:41.829Z,47.9230
2022-08-17T11:02:44.244Z,47.9110
2022-08-17T11:03:46.401Z,47.8930
2022-08-17T11:04:48.627Z,47.9050
2022-08-17T11:05:48.785Z,47.9110
2022-08-17T11:06:51.046Z,47.9290
2022-08-17T11:07:53.585Z,47.9110
2022-08-17T11:08:55.655Z,47.8800
2022-08-17T11:09:57.924Z,47.8540
2022-08-17T11:11:00.207Z,47.8300
2022-08-17T11:12:02.541Z,47.8110
2022-08-17T11:13:02.987Z,47.7910
2022-08-17T11:14:05.049Z,47.7910
2022-08-17T11:15:07.333Z,47.7600
2022-08-17T11:16:09.600Z,47.7280
2022-08-17T11:17:11.871Z,47.7220
2022-08-17T11:18:14.175Z,47.6910
2022-08-17T11:19:14.296Z,47.6530
2022-08-17T11:20:16.607Z,47.6970
2022-08-17T11:21:18.935Z,47.6590
2022-08-17T11:22:21.264Z,47.6730
2022-08-17T11:23:23.621Z,47.7040
2022-08-17T11:24:25.909Z,47.6790
2022-08-17T11:25:26.093Z,47.7280
2022-08-17T11:26:28.416Z,47.6970
2022-08-17T11:27:30.710Z,47.6650
2022-08-17T11:28:33.004Z,47.6470
2022-08-17T11:29:35.310Z,47.6350
2022-08-17T11:30:37.603Z,47.5720
2022-08-17T11:31:39.718Z,47.6000
2022-08-17T11:32:38.963Z,47.6930
2022-08-17T11:33:12.349Z,47.8060
2022-08-17T11:34:14.654Z,47.7780
2022-08-17T11:35:16.890Z,47.8050
2022-08-17T11:36:19.220Z,47.8110
2022-08-17T11:37:21.446Z,47.7000
2022-08-17T11:38:21.501Z,47.8360
2022-08-17T11:39:23.834Z,47.7000
2022-08-17T11:40:26.058Z,47.6810
2022-08-17T11:41:28.308Z,47.6850
2022-08-17T11:42:30.533Z,47.7040
2022-08-17T11:43:32.778Z,47.6590
2022-08-17T11:44:35.052Z,47.6230
2022-08-17T11:45:37.282Z,47.7100
2022-08-17T11:46:39.515Z,47.7100
2022-08-17T11:47:41.754Z,47.8860
2022-08-17T11:48:41.843Z,47.7790
2022-08-17T11:49:44.076Z,47.7260
2022-08-17T11:50:46.253Z,47.7260
2022-08-17T11:51:48.455Z,47.7000
2022-08-17T11:52:50.674Z,47.6980
2022-08-17T11:54:08.639Z,47.7160
2022-08-17T11:55:03.632Z,47.7140
2022-08-17T11:55:57.404Z,47.7280
2022-08-17T11:56:59.664Z,47.7080
2022-08-17T11:58:01.979Z,47.8520
2022-08-17T11:59:04.130Z,47.8540
2022-08-17T12:00:06.437Z,47.7790
2022-08-17T12:01:06.496Z,47.7850
2022-08-17T12:02:08.724Z,47.7850
2022-08-17T12:03:11.030Z,47.7100
2022-08-17T12:04:13.291Z,47.7380
2022-08-17T12:05:15.493Z,47.7200
2022-08-17T12:06:17.767Z,47.8830
2022-08-17T12:07:20.008Z,47.8640
2022-08-17T12:08:22.282Z,47.9210
2022-08-17T12:09:22.405Z,47.9900
2022-08-17T12:10:24.689Z,47.8400
2022-08-17T12:11:58.820Z,47.9150
2022-08-17T12:12:29.166Z,47.8200
2022-08-17T12:13:38.456Z,47.9840
2022-08-17T12:15:08.232Z,48.0150
2022-08-17T12:15:36.069Z,47.9560
2022-08-17T12:16:38.339Z,48.0410
2022-08-17T12:17:51.925Z,48.0210
2022-08-17T12:18:40.817Z,47.9330
2022-08-17T12:19:43.122Z,48.0660
2022-08-17T12:20:45.458Z,47.9780
2022-08-17T12:21:47.738Z,48.0030
2022-08-17T12:22:50.050Z,47.9840
2022-08-17T12:23:50.211Z,48.0210
2022-08-17T12:24:52.526Z,47.9970
2022-08-17T12:25:54.849Z,47.9500
2022-08-17T12:26:57.132Z,47.9920
2022-08-17T12:28:04.911Z,48.0470
2022-08-17T12:28:59.737Z,48.0900
2022-08-17T12:30:01.718Z,48.0840
2022-08-17T12:31:03.961Z,48.0840
2022-08-17T12:32:06.137Z,48.0780